地図

経路データ

SID SEASON NUMBER BASIN SUBBASIN NAME ISO_TIME NATURE LAT LON WMO_WIND WMO_PRES WMO_AGENCY TRACK_TYPE DIST2LAND LANDFALL IFLAG USA_AGENCY USA_ATCF_ID USA_LAT USA_LON USA_RECORD USA_STATUS USA_WIND USA_PRES USA_SSHS USA_R34_NE USA_R34_SE USA_R34_SW USA_R34_NW USA_R50_NE USA_R50_SE USA_R50_SW USA_R50_NW USA_R64_NE USA_R64_SE USA_R64_SW USA_R64_NW USA_POCI USA_ROCI USA_RMW USA_EYE TOKYO_LAT TOKYO_LON TOKYO_GRADE TOKYO_WIND TOKYO_PRES TOKYO_R50_DIR TOKYO_R50_LONG TOKYO_R50_SHORT TOKYO_R30_DIR TOKYO_R30_LONG TOKYO_R30_SHORT TOKYO_LAND CMA_LAT CMA_LON CMA_CAT CMA_WIND CMA_PRES HKO_LAT HKO_LON HKO_CAT HKO_WIND HKO_PRES NEWDELHI_LAT NEWDELHI_LON NEWDELHI_GRADE NEWDELHI_WIND NEWDELHI_PRES NEWDELHI_CI NEWDELHI_DP NEWDELHI_POCI REUNION_LAT REUNION_LON REUNION_TYPE REUNION_WIND REUNION_PRES REUNION_TNUM REUNION_CI REUNION_RMW REUNION_R34_NE REUNION_R34_SE REUNION_R34_SW REUNION_R34_NW REUNION_R50_NE REUNION_R50_SE REUNION_R50_SW REUNION_R50_NW REUNION_R64_NE REUNION_R64_SE REUNION_R64_SW REUNION_R64_NW BOM_LAT BOM_LON BOM_TYPE BOM_WIND BOM_PRES BOM_TNUM BOM_CI BOM_RMW BOM_R34_NE BOM_R34_SE BOM_R34_SW BOM_R34_NW BOM_R50_NE BOM_R50_SE BOM_R50_SW BOM_R50_NW BOM_R64_NE BOM_R64_SE BOM_R64_SW BOM_R64_NW BOM_ROCI BOM_POCI BOM_EYE BOM_POS_METHOD BOM_PRES_METHOD NADI_LAT NADI_LON NADI_CAT NADI_WIND NADI_PRES WELLINGTON_LAT WELLINGTON_LON WELLINGTON_WIND WELLINGTON_PRES DS824_LAT DS824_LON DS824_STAGE DS824_WIND DS824_PRES TD9636_LAT TD9636_LON TD9636_STAGE TD9636_WIND TD9636_PRES TD9635_LAT TD9635_LON TD9635_WIND TD9635_PRES TD9635_ROCI NEUMANN_LAT NEUMANN_LON NEUMANN_CLASS NEUMANN_WIND NEUMANN_PRES MLC_LAT MLC_LON MLC_CLASS MLC_WIND MLC_PRES USA_GUST BOM_GUST BOM_GUST_PER REUNION_GUST REUNION_GUST_PER USA_SEAHGT USA_SEARAD_NE USA_SEARAD_SE USA_SEARAD_SW USA_SEARAD_NW STORM_SPEED STORM_DIR
1949153S21060 1949 34 SI MM NOT_NAMED 1949-06-02 06:00:00 NR -21.3000 59.6000 reunion main 216 216 _____O________ -1 -21.3000 59.6000 99 9.90000 2 96
1949153S21060 1949 34 SI MM NOT_NAMED 1949-06-02 09:00:00 NR -21.3077 59.6834 main 226 226 _____P________ -1 -21.3077 59.6834 99 1 97
1949153S21060 1949 34 SI MM NOT_NAMED 1949-06-02 12:00:00 NR -21.3171 59.7482 main 226 226 _____P________ -1 -21.3171 59.7482 99 1 104
1949153S21060 1949 34 SI MM NOT_NAMED 1949-06-02 15:00:00 NR -21.3299 59.7757 main 235 231 _____P________ -1 -21.3299 59.7757 99 2 32
1949153S21060 1949 34 SI MM NOT_NAMED 1949-06-02 18:00:00 TS -21.1558 59.8556 main 240 216 O____P___OO___ jtwc_sh SH251949 -20.9000 60.0000 -1 -21.3477 59.7473 99 -20.9000 60.0000 TC -20.9000 60.0000 7 3 339
1949153S21060 1949 34 SI MM NOT_NAMED 1949-06-02 21:00:00 TS -21.0874 59.6848 main 216 188 P____P___PP___ SH251949 -20.8925 59.7325 -1 -21.3722 59.6443 99 -20.8925 59.7325 TC -20.9077 59.6703 7 4 282
1949153S21060 1949 34 SI MM NOT_NAMED 1949-06-03 00:00:00 TS -21.0605 59.3946 main 188 150 O____P___OP___ jtwc_sh SH251949 -20.9000 59.4000 -1 -21.4049 59.4480 99 -20.9000 59.4000 TC -20.9221 59.3126 7 7 272
1949153S21060 1949 34 SI MM NOT_NAMED 1949-06-03 03:00:00 TS -21.0669 58.9857 main 150 106 P____P___PP___ SH251949 -20.9349 58.9524 -1 -21.4472 59.1395 99 -20.9349 58.9524 TC -20.9506 58.8986 7 9 266
1949153S21060 1949 34 SI MM NOT_NAMED 1949-06-03 06:00:00 TS -21.1250 58.4750 reunion main 106 80 O____O___OO___ jtwc_sh SH251949 -21.0000 58.4000 -1 -21.5000 58.7000 99 9.90000 -21.0000 58.4000 TC 25 -21.0000 58.4000 7 10 263
1949153S21060 1949 34 SI MM NOT_NAMED 1949-06-03 09:00:00 TS -21.2026 57.8728 main 80 78 P____P___PP___ SH251949 -21.0848 57.7874 -1 -21.5644 58.1185 99 -21.0848 57.7874 TC 25 -21.0762 57.7979 7 12 261
1949153S21060 1949 34 SI MM NOT_NAMED 1949-06-03 12:00:00 TS -21.3066 57.1822 main 90 73 O____P___OP___ jtwc_sh SH251949 -21.2000 57.1000 -1 -21.6438 57.4173 99 -21.2000 57.1000 TC 25 -21.1827 57.1115 7 14 260
1949153S21060 1949 34 SI MM NOT_NAMED 1949-06-03 15:00:00 TS -21.4299 56.4351 main 63 24 P____P___PP___ SH251949 -21.3273 56.3722 -1 -21.7424 56.6268 99 -21.3273 56.3722 TC 30 -21.3227 56.3694 7 15 259
1949153S21060 1949 34 SI MM NOT_NAMED 1949-06-03 18:00:00 TS -21.5911 55.6444 main 22 22 O____P___OO___ jtwc_sh SH251949 -21.5000 55.6000 -1 -21.8646 55.7775 99 -21.5000 55.6000 TC 35 -21.5000 55.6000 2 15 256
1949153S21060 1949 34 SI MM NOT_NAMED 1949-06-03 21:00:00 TS -21.7968 54.8306 main 76 76 P____P___PP___ SH251949 -21.7348 54.8000 -1 -22.0155 54.8999 99 -21.7348 54.8000 TC 35 -21.7020 54.8224 2 16 254
1949153S21060 1949 34 SI MM NOT_NAMED 1949-06-04 00:00:00 TS -22.0353 54.0130 main 155 155 O____P___OP___ jtwc_sh SH251949 -22.0000 54.0000 -1 -22.2007 54.0243 99 -22.0000 54.0000 TC 35 -21.9404 54.0276 2 16 252
1949153S21060 1949 34 SI MM NOT_NAMED 1949-06-04 03:00:00 TS -22.2799 53.2198 main 243 243 P____P___PP___ SH251949 -22.2422 53.2272 -1 -22.4266 53.1810 99 -22.2422 53.2272 TC 35 -22.2084 53.2439 2 15 250
1949153S21060 1949 34 SI MM NOT_NAMED 1949-06-04 06:00:00 TS -22.5500 52.4750 reunion main 318 323 O____O___OO___ jtwc_sh SH251949 -22.5000 52.5000 -1 -22.7000 52.4000 99 9.90000 -22.5000 52.5000 TC 35 -22.5000 52.5000 2 14 247
1949153S21060 1949 34 SI MM NOT_NAMED 1949-06-04 09:00:00 TS -22.8514 51.7888 main 389 345 P____P___PP___ SH251949 -22.7846 51.8272 -1 -23.0783 51.7065 99 -22.7846 51.8272 TC 35 -22.7580 51.7941 2 14 242
1949153S21060 1949 34 SI MM NOT_NAMED 1949-06-04 12:00:00 TS -23.1894 51.1462 main 335 293 O____P___OP___ jtwc_sh SH251949 -23.1000 51.2000 -1 -23.5135 51.0492 99 -23.1000 51.2000 TC 35 -23.0443 51.1358 2 13 239
1949153S21060 1949 34 SI MM NOT_NAMED 1949-06-04 15:00:00 TS -23.5488 50.5350 main 283 240 P____P___PP___ SH251949 -23.4123 50.5844 -1 -23.9874 50.4368 99 -23.4123 50.5844 TC 35 -23.3834 50.5346 2 13 234
1949153S21060 1949 34 SI MM NOT_NAMED 1949-06-04 18:00:00 TS -23.9704 49.9697 main 243 197 O____P___OO___ jtwc_sh SH251949 -23.8000 50.0000 -1 -24.4817 49.8788 99 -23.8000 50.0000 TC 35 -23.8000 50.0000 2 14 228
1949153S21060 1949 34 SI MM NOT_NAMED 1949-06-04 21:00:00 TS -24.4712 49.3976 main 200 170 P____P___PP___ SH251949 -24.3051 49.3978 -1 -24.9783 49.3853 99 -24.3051 49.3978 TC 35 -24.2962 49.4094 2 14 222
1949153S21060 1949 34 SI MM NOT_NAMED 1949-06-05 00:00:00 TS -25.0327 48.9166 main 170 157 O____P___OP___ jtwc_sh SH251949 -24.9000 48.9000 -1 -25.4589 48.9669 99 -24.9000 48.9000 TC 35 -24.8719 48.8993 2 14 214
1949153S21060 1949 34 SI MM NOT_NAMED 1949-06-05 03:00:00 TS -25.6142 48.5624 main 164 155 P____P___PP___ SH251949 -25.5197 48.5379 -1 -25.9056 48.6347 99 -25.5197 48.5379 TC 35 -25.5116 48.5391 2 13 201
1949153S21060 1949 34 SI MM NOT_NAMED 1949-06-05 06:00:00 TS -26.2250 48.4000 reunion main 186 186 O____O___OO___ jtwc_sh SH251949 -26.2000 48.4000 -1 -26.3000 48.4000 99 9.90000 -26.2000 48.4000 TC 35 -26.2000 48.4000 2 13 186
1949153S21060 1949 34 SI MM NOT_NAMED 1949-06-05 09:00:00 TS -26.8650 48.4310 main 244 244 P____P___PP___ SH251949 -26.9346 48.4728 -1 -26.6286 48.2701 99 -26.9346 48.4728 TC 35 -26.9623 48.5085 2 13 169
1949153S21060 1949 34 SI MM NOT_NAMED 1949-06-05 12:00:00 TS -27.5135 48.6713 main 317 317 O____P___OP___ jtwc_sh SH251949 -27.7000 48.8000 -1 -26.8959 48.2364 99 -27.7000 48.8000 TC 35 -27.7582 48.8489 2 14 156
1949153S21060 1949 34 SI MM NOT_NAMED 1949-06-05 15:00:00 TS -28.1527 49.0749 main 404 404 P____P___PP___ SH251949 -28.4876 49.3242 -1 -27.1106 48.2857 99 -28.4876 49.3242 TC 35 -28.5249 49.3655 2 15 146
1949153S21060 1949 34 SI MM NOT_NAMED 1949-06-05 18:00:00 TS -28.7204 49.6011 main 477 477 O____P___OO___ jtwc_sh SH251949 -29.2000 50.0000 -1 -27.2816 48.4045 99 -29.2000 50.0000 TC 35 -29.2000 50.0000 2 14 137
1949153S21060 1949 34 SI MM NOT_NAMED 1949-06-05 21:00:00 TS -29.1724 50.1549 main 556 556 P____P___PP___ SH251949 -29.7671 50.6707 -1 -27.4174 48.5792 99 -29.7671 50.6707 TC 35 -29.7378 50.6990 2 13 128
1949153S21060 1949 34 SI MM NOT_NAMED 1949-06-06 00:00:00 TS -29.5214 50.7592 main 618 618 O____P___OP___ jtwc_sh SH251949 -30.2000 51.4000 -1 -27.5267 48.7959 99 -30.2000 51.4000 TC 35 -30.1590 51.4408 2 13 120
1949153S21060 1949 34 SI MM NOT_NAMED 1949-06-06 03:00:00 TS -29.7940 51.4053 main 680 680 P____P___PP___ SH251949 -30.5286 52.1842 -1 -27.6180 49.0408 99 -30.5286 52.1842 TC 35 -30.5007 52.2121 2 12 114
1949153S21060 1949 34 SI MM NOT_NAMED 1949-06-06 06:00:00 TS -30.0250 52.0750 reunion main 742 O____O___OO___ jtwc_sh SH251949 -30.8000 53.0000 -1 -27.7000 49.3000 99 9.90000 -30.8000 53.0000 TC 35 -30.8000 53.0000 2 12 112

IBTrACS Databaseについて

本データベースは、米国NOAAが公開する1842年以降の世界の熱帯低気圧のベストトラックデータアーカイブInternational Best Track Archive for Climate Stewardship (IBTrACS)を、ウェブで閲覧しやすい形式に変換したものです。

最終更新日:2021-10-08